METAR AND TAF INFORMATION
METAR FOR EHGR
ADDS - METARS form results

(1725 UTC 22 October 2017)
Data provider http://aviationweather.gov/adds/metars/
 
METAR text: EHGR 221655Z AUTO 23009KT 210V270 9999 -RA FEW031 SCT035 BKN041 10/08 Q1013 BLU
Conditions at: EHGR (GILZE-RIJEN RNLA, NL) observed 1655 UTC 22 October 2017
Temperature: 10.0°C (50°F)
Dewpoint: 8.0°C (46°F) [RH = 87%]
Pressure (altimeter): 29.91 inches Hg (1013.0 mb)
Winds: from the SW (230 degrees) at 10 MPH (9 knots; 4.7 m/s)
Visibility: 6 or more miles (10+ km)
Ceiling: 4100 feet AGL
Clouds: few clouds at 3100 feet AGL
scattered clouds at 3500 feet AGL
broken clouds at 4100 feet AGL
Weather: -RA  (light rain)

METAR text: EHGR 221643Z AUTO 24008KT 210V270 9000 -SHRA FEW015CB SCT035 BKN043 10/08 Q1013 BLU
Conditions at: EHGR (GILZE-RIJEN RNLA, NL) observed 1643 UTC 22 October 2017
Temperature: 10.0°C (50°F)
Dewpoint: 8.0°C (46°F) [RH = 87%]
Pressure (altimeter): 29.91 inches Hg (1013.0 mb)
Winds: from the WSW (240 degrees) at 9 MPH (8 knots; 4.2 m/s)
Visibility: 6 miles (9 km)
Ceiling: 4300 feet AGL
Clouds: few clouds at 1500 feet AGL
scattered clouds at 3500 feet AGL
broken clouds at 4300 feet AGL
Weather: -SHRA  (light rain showers)

METAR text: EHGR 221636Z AUTO 24008KT 210V270 9999 -SHRA FEW013 FEW015CB SCT020 BKN036 10/08 Q1013 WHT
Conditions at: EHGR (GILZE-RIJEN RNLA, NL) observed 1636 UTC 22 October 2017
Temperature: 10.0°C (50°F)
Dewpoint: 8.0°C (46°F) [RH = 87%]
Pressure (altimeter): 29.91 inches Hg (1013.0 mb)
Winds: from the WSW (240 degrees) at 9 MPH (8 knots; 4.2 m/s)
Visibility: 6 or more miles (10+ km)
Ceiling: 3600 feet AGL
Clouds: few clouds at 1300 feet AGL
few clouds at 1500 feet AGL
scattered clouds at 2000 feet AGL
broken clouds at 3600 feet AGL
Weather: -SHRA  (light rain showers)

 AIRPORT MAP

 RUNWAY INFORMATION
Runway 02 Runway length 6549 ft Runway width 98 ft
Runway elevation 49 ft Runway displaced threshold 191 ft Runway heading 18
Runway 20 Runway length 6549 ft Runway width 98 ft
Runway elevation 40 ft Runway displaced threshold 192 ft Runway heading 198
Runway 10 Runway length 9118 ft Runway width 148 ft
Runway elevation 42 ft Runway displaced threshold 427 ft Runway heading 100
Runway 28 Runway length 9118 ft Runway width 148 ft
Runway elevation 38 ft Runway displaced threshold 331 ft Runway heading 280

 AIRPORT FREQUENCIES
Type ARR Name RAPCON WES Frequency 123.575 MHZ
Type GND Name GND Frequency 23.492 MHZ
Type TWR Name TWR Frequency 125.325 MHZ

 AIRPORT NEAR NAVIGATION AIDS
Type TACAN Name Gilze Rijen Frequency 116400 KHZ